Time;durP1;ratioP1;P1;durP2;ratioP2;P2;SDS_P1;SDS_P2;PMS_P1;PMS_P2;Temp;Humidity;BMP_temperature;BMP_pressure;BME280_temperature;BME280_humidity;BME280_pressure;Samples;Min_cycle;Max_cycle;Signal;HPM_P1;HPM_P2
2022/07/26 00:02:02;;;;;;;7.97;6.93;;;22.00;99.90;;;;;;4993940;28;20447;-47
2022/07/26 00:04:29;;;;;;;11.07;7.30;;;22.00;99.90;;;;;;4994194;28;20481;-51
2022/07/26 00:06:56;;;;;;;10.00;7.43;;;21.90;99.90;;;;;;4994336;28;20513;-40
2022/07/26 00:09:25;;;;;;;9.73;7.53;;;21.90;99.90;;;;;;4993931;28;20974;-51
2022/07/26 00:11:55;;;;;;;7.10;6.40;;;21.80;99.90;;;;;;4993309;28;20451;-48
2022/07/26 00:14:22;;;;;;;8.50;6.60;;;21.80;99.90;;;;;;4993849;28;20459;-45
2022/07/26 00:16:49;;;;;;;10.00;8.00;;;21.70;99.90;;;;;;4994233;28;20510;-43
2022/07/26 00:19:16;;;;;;;9.93;7.57;;;21.60;99.90;;;;;;4993863;28;20420;-50
2022/07/26 00:21:43;;;;;;;11.60;7.23;;;21.60;99.90;;;;;;4994019;28;20441;-48
2022/07/26 00:24:10;;;;;;;8.23;6.73;;;21.50;99.90;;;;;;4994172;28;20483;-45
2022/07/26 00:26:37;;;;;;;12.97;7.37;;;21.50;99.90;;;;;;4994078;28;20511;-54
2022/07/26 00:29:10;;;;;;;8.10;7.00;;;21.40;99.90;;;;;;4994380;28;20438;-49
2022/07/26 00:31:37;;;;;;;7.67;6.70;;;21.40;99.90;;;;;;4994349;28;20461;-44
2022/07/26 00:34:04;;;;;;;9.93;6.90;;;21.30;99.90;;;;;;4994362;28;20487;-53
2022/07/26 00:36:30;;;;;;;11.70;8.13;;;21.30;99.90;;;;;;4993576;28;20477;-47
2022/07/26 00:38:57;;;;;;;8.37;6.87;;;21.30;99.90;;;;;;4994113;28;20443;-59
2022/07/26 00:41:24;;;;;;;7.93;6.17;;;21.30;99.90;;;;;;4994310;28;20454;-48
2022/07/26 00:43:58;;;;;;;8.30;7.27;;;21.20;99.90;;;;;;4993749;28;20493;-49
2022/07/26 00:46:27;;;;;;;8.93;6.20;;;21.20;99.90;;;;;;4993349;28;20419;-50
2022/07/26 00:48:54;;;;;;;8.03;6.67;;;21.30;99.90;;;;;;4993438;28;20526;-50
2022/07/26 00:51:21;;;;;;;8.80;6.97;;;21.20;99.90;;;;;;4993295;28;20443;-41
2022/07/26 00:53:49;;;;;;;8.33;6.53;;;21.20;99.90;;;;;;4992895;28;20458;-53
2022/07/26 00:56:17;;;;;;;11.23;6.37;;;21.20;99.90;;;;;;4993244;28;20450;-50
2022/07/26 00:58:44;;;;;;;12.10;6.97;;;21.10;99.90;;;;;;4993196;28;20510;-55
2022/07/26 01:01:15;;;;;;;11.77;6.93;;;21.20;99.90;;;;;;4993240;28;20447;-53
2022/07/26 01:03:44;;;;;;;10.30;7.80;;;21.10;99.90;;;;;;4992833;28;20451;-46
2022/07/26 01:06:11;;;;;;;10.10;6.97;;;21.10;99.90;;;;;;4993347;28;20646;-48
2022/07/26 01:08:38;;;;;;;7.90;6.00;;;21.10;99.90;;;;;;4993521;28;20447;-55
2022/07/26 01:11:05;;;;;;;7.40;6.63;;;21.10;99.90;;;;;;4993421;28;20545;-50
2022/07/26 01:13:33;;;;;;;11.60;7.37;;;21.10;99.90;;;;;;4992809;28;20437;-46
2022/07/26 01:15:59;;;;;;;11.50;8.13;;;21.10;99.90;;;;;;4992897;28;20482;-48
2022/07/26 01:18:29;;;;;;;11.07;7.37;;;21.10;99.90;;;;;;4992614;28;20428;-52
2022/07/26 01:21:01;;;;;;;10.20;8.27;;;21.10;99.90;;;;;;4992516;28;20443;-50
2022/07/26 01:23:29;;;;;;;10.23;6.70;;;21.20;99.90;;;;;;4996303;28;20546;-49
2022/07/26 01:25:57;;;;;;;9.83;6.40;;;21.20;99.90;;;;;;4996545;28;20439;-51
2022/07/26 01:28:23;;;;;;;9.73;6.73;;;21.20;99.90;;;;;;4996301;28;20967;-52
2022/07/26 01:30:50;;;;;;;7.90;6.07;;;21.20;99.90;;;;;;4996111;28;20502;-50
2022/07/26 01:33:17;;;;;;;10.53;6.40;;;21.10;99.90;;;;;;4996571;28;20466;-48
2022/07/26 01:35:44;;;;;;;6.77;6.07;;;21.10;99.90;;;;;;4996393;28;20459;-49
2022/07/26 01:38:11;;;;;;;6.33;5.40;;;21.10;99.90;;;;;;4996179;28;20462;-45
2022/07/26 01:40:40;;;;;;;6.90;6.30;;;21.10;99.90;;;;;;4996342;28;20451;-49
2022/07/26 01:43:06;;;;;;;11.83;5.97;;;21.20;99.90;;;;;;4995931;28;20467;-51
2022/07/26 01:45:35;;;;;;;7.53;5.70;;;21.20;99.90;;;;;;4996085;28;20475;-50
2022/07/26 01:48:02;;;;;;;9.00;6.93;;;21.20;99.90;;;;;;4995984;28;20534;-45
2022/07/26 01:50:30;;;;;;;9.93;6.17;;;21.20;99.90;;;;;;4996376;28;20479;-49
2022/07/26 01:52:57;;;;;;;8.00;7.00;;;21.20;99.90;;;;;;4995527;28;20450;-48
2022/07/26 01:55:24;;;;;;;12.03;7.70;;;21.20;99.90;;;;;;4995322;28;20446;-50
2022/07/26 01:57:52;;;;;;;10.53;7.27;;;21.10;99.90;;;;;;4995052;28;20459;-50
2022/07/26 02:00:19;;;;;;;7.93;6.83;;;21.20;99.90;;;;;;4995274;28;20455;-53
2022/07/26 02:02:46;;;;;;;9.40;7.60;;;21.20;99.90;;;;;;4994920;28;20490;-53
2022/07/26 02:05:13;;;;;;;8.77;7.50;;;21.10;99.90;;;;;;4995710;28;20455;-47
2022/07/26 02:07:42;;;;;;;8.83;7.57;;;21.10;99.90;;;;;;4995469;28;20467;-49
2022/07/26 02:10:10;;;;;;;12.03;7.87;;;21.10;99.90;;;;;;4996007;28;20497;-48
2022/07/26 02:12:38;;;;;;;8.33;6.70;;;21.00;99.90;;;;;;4995524;28;20531;-52
2022/07/26 02:15:08;;;;;;;7.30;6.57;;;21.00;99.90;;;;;;4995427;28;20474;-49
2022/07/26 02:17:35;;;;;;;9.27;8.37;;;21.00;99.90;;;;;;4995450;28;20470;-44
2022/07/26 02:20:02;;;;;;;10.97;7.63;;;21.00;99.90;;;;;;4995295;28;20478;-47
2022/07/26 02:22:29;;;;;;;8.87;6.57;;;20.90;99.90;;;;;;4995611;28;20448;-46
2022/07/26 02:24:58;;;;;;;7.80;6.33;;;20.90;99.90;;;;;;4995522;28;20526;-46
2022/07/26 02:27:25;;;;;;;8.17;7.07;;;20.90;99.90;;;;;;4995471;28;20447;-47
2022/07/26 02:29:58;;;;;;;11.13;6.80;;;20.80;99.90;;;;;;4995252;28;20534;-49
2022/07/26 02:32:26;;;;;;;10.27;7.33;;;20.80;99.90;;;;;;4995347;28;20446;-48
2022/07/26 02:34:55;;;;;;;11.50;7.20;;;20.70;99.90;;;;;;4994451;28;20506;-47
2022/07/26 02:37:22;;;;;;;8.07;6.90;;;20.60;99.90;;;;;;4995364;28;20477;-46
2022/07/26 02:39:49;;;;;;;9.93;7.03;;;20.50;99.90;;;;;;4995194;28;20566;-45
2022/07/26 02:42:16;;;;;;;11.13;6.60;;;20.60;99.90;;;;;;4995383;28;20447;-48
2022/07/26 02:44:42;;;;;;;7.17;6.47;;;20.50;99.90;;;;;;4994806;28;20466;-44
2022/07/26 02:47:09;;;;;;;7.07;5.70;;;20.50;99.90;;;;;;4995110;28;20467;-50
2022/07/26 02:49:43;;;;;;;7.90;7.10;;;20.60;99.90;;;;;;4995076;28;20423;-49
2022/07/26 02:52:10;;;;;;;7.70;6.17;;;20.60;99.90;;;;;;4995001;28;20536;-55
2022/07/26 02:54:37;;;;;;;9.30;6.60;;;20.50;99.90;;;;;;4994946;28;20485;-49
2022/07/26 02:57:04;;;;;;;8.17;6.77;;;20.50;99.90;;;;;;4994518;28;20498;-47
2022/07/26 02:59:31;;;;;;;9.50;6.73;;;20.50;99.90;;;;;;4995088;28;20439;-48
2022/07/26 03:01:58;;;;;;;7.07;6.37;;;20.50;99.90;;;;;;4995070;28;20439;-44
2022/07/26 03:04:25;;;;;;;9.80;6.60;;;20.50;99.90;;;;;;4994643;28;20450;-43
2022/07/26 03:06:53;;;;;;;7.87;7.07;;;20.50;99.90;;;;;;4994400;28;20530;-45
2022/07/26 03:09:20;;;;;;;8.73;6.80;;;20.40;99.90;;;;;;4994845;28;20463;-45
2022/07/26 03:11:47;;;;;;;7.63;6.93;;;20.50;99.90;;;;;;4994690;28;20554;-53
2022/07/26 03:14:17;;;;;;;10.60;6.23;;;20.50;99.90;;;;;;4994470;28;20471;-47
2022/07/26 03:16:44;;;;;;;10.90;6.80;;;20.50;99.90;;;;;;4994969;28;20496;-52
2022/07/26 03:19:17;;;;;;;8.47;6.60;;;20.40;99.90;;;;;;4994598;28;20447;-43
2022/07/26 03:21:44;;;;;;;7.27;6.03;;;20.30;99.90;;;;;;4994709;28;20446;-54
2022/07/26 03:24:12;;;;;;;6.93;6.23;;;20.30;99.90;;;;;;4994614;28;20453;-54
2022/07/26 03:26:40;;;;;;;9.93;6.97;;;20.30;99.90;;;;;;4994852;28;20485;-48
2022/07/26 03:29:07;;;;;;;7.10;6.40;;;20.30;99.90;;;;;;4994644;28;20435;-51
2022/07/26 03:31:34;;;;;;;6.50;5.80;;;20.30;99.90;;;;;;4993959;28;20479;-48
2022/07/26 03:34:04;;;;;;;7.07;6.37;;;20.30;99.90;;;;;;4994287;28;20455;-46
2022/07/26 03:36:31;;;;;;;11.83;6.13;;;20.30;99.90;;;;;;4994726;28;20486;-52
2022/07/26 03:38:58;;;;;;;9.33;7.40;;;20.30;99.90;;;;;;4994440;28;20527;-49
2022/07/26 03:41:30;;;;;;;7.10;6.07;;;20.30;99.90;;;;;;4994997;28;20431;-50
2022/07/26 03:43:57;;;;;;;7.93;6.27;;;20.30;99.90;;;;;;4994488;28;20431;-46
2022/07/26 03:46:33;;;;;;;7.70;6.90;;;20.20;99.90;;;;;;4994967;28;20462;-51
2022/07/26 03:49:01;;;;;;;7.60;6.70;;;20.10;99.90;;;;;;4995091;28;20491;-47
2022/07/26 03:51:28;;;;;;;6.23;5.63;;;20.10;99.90;;;;;;4995385;28;20490;-56
2022/07/26 03:53:55;;;;;;;6.90;5.70;;;20.20;99.90;;;;;;4995097;28;20546;-53
2022/07/26 03:56:33;;;;;;;8.60;5.63;;;20.20;99.90;;;;;;4994795;28;20499;-51
2022/07/26 03:59:04;;;;;;;6.23;5.30;;;20.10;99.90;;;;;;4994623;28;21057;-50
2022/07/26 04:01:33;;;;;;;7.00;5.33;;;20.20;99.90;;;;;;4994347;28;20478;-46
2022/07/26 04:04:00;;;;;;;5.40;4.47;;;20.20;99.90;;;;;;4994286;28;20451;-47
2022/07/26 04:06:29;;;;;;;6.50;4.53;;;20.10;99.90;;;;;;5022255;28;20458;-43
2022/07/26 04:08:56;;;;;;;7.60;5.00;;;20.10;99.90;;;;;;5076236;28;20450;-49
2022/07/26 04:11:26;;;;;;;5.20;4.57;;;20.10;99.90;;;;;;5075888;28;20507;-50
2022/07/26 04:13:53;;;;;;;5.90;4.07;;;20.20;99.90;;;;;;5075684;28;20470;-48
2022/07/26 04:16:21;;;;;;;5.13;4.27;;;20.20;99.90;;;;;;5075710;28;20463;-50
2022/07/26 04:18:48;;;;;;;6.90;5.03;;;20.30;99.90;;;;;;5074401;28;20444;-54
2022/07/26 04:21:15;;;;;;;9.03;4.60;;;20.40;99.90;;;;;;5074493;28;20509;-47
2022/07/26 04:23:42;;;;;;;7.70;4.63;;;20.50;99.90;;;;;;5075249;28;20473;-53
2022/07/26 04:26:09;;;;;;;6.33;4.17;;;20.60;99.90;;;;;;5074474;28;20423;-42
2022/07/26 04:28:37;;;;;;;10.30;4.10;;;20.60;99.90;;;;;;5074050;28;20446;-51
2022/07/26 04:31:04;;;;;;;6.10;4.00;;;20.60;99.90;;;;;;5074359;28;20510;-50
2022/07/26 04:33:32;;;;;;;5.27;4.10;;;20.60;99.90;;;;;;5075617;28;20459;-45
2022/07/26 04:36:00;;;;;;;6.03;3.83;;;20.50;99.90;;;;;;5076113;28;20469;-51
2022/07/26 04:38:27;;;;;;;7.23;3.73;;;20.50;99.90;;;;;;5075297;28;21051;-43
2022/07/26 04:40:54;;;;;;;4.73;3.50;;;20.60;99.90;;;;;;5076226;28;20414;-48
2022/07/26 04:43:21;;;;;;;4.77;4.23;;;20.60;99.90;;;;;;5076002;28;20439;-47
2022/07/26 04:45:51;;;;;;;9.13;4.10;;;20.60;99.90;;;;;;5076258;28;20447;-49
2022/07/26 04:48:18;;;;;;;6.03;4.00;;;20.60;99.90;;;;;;5075989;28;20459;-52
2022/07/26 04:50:46;;;;;;;3.40;3.10;;;20.60;99.90;;;;;;5075754;28;20490;-59
2022/07/26 04:53:13;;;;;;;5.47;3.40;;;20.60;99.90;;;;;;5075266;28;20447;-52
2022/07/26 04:55:41;;;;;;;5.13;4.60;;;20.50;99.90;;;;;;5075228;28;20527;-55
2022/07/26 04:58:08;;;;;;;4.57;3.80;;;20.60;99.90;;;;;;5074840;28;20526;-43
2022/07/26 05:00:36;;;;;;;6.00;4.20;;;20.70;99.90;;;;;;5075243;28;20431;-44
2022/07/26 05:03:04;;;;;;;6.93;4.50;;;20.70;99.90;;;;;;5074845;28;20426;-47
2022/07/26 05:05:33;;;;;;;5.10;4.13;;;20.70;99.90;;;;;;5075091;28;20498;-52
2022/07/26 05:08:03;;;;;;;4.10;3.70;;;20.70;99.90;;;;;;5075349;28;20459;-55
2022/07/26 05:10:35;;;;;;;6.20;5.33;;;20.80;99.90;;;;;;5074828;28;20418;-45
2022/07/26 05:13:03;;;;;;;6.70;3.90;;;20.80;99.90;;;;;;5075734;28;20467;-49
2022/07/26 05:15:30;;;;;;;7.60;5.40;;;21.00;99.90;;;;;;5075469;28;20443;-47
2022/07/26 05:18:05;;;;;;;6.10;5.30;;;21.00;99.90;;;;;;5074856;28;20454;-52
2022/07/26 05:20:32;;;;;;;5.67;4.50;;;21.10;99.90;;;;;;5074218;28;20443;-38
2022/07/26 05:23:00;;;;;;;6.53;4.53;;;21.20;99.90;;;;;;5075165;28;20506;-41
2022/07/26 05:25:28;;;;;;;5.70;4.27;;;21.10;99.90;;;;;;5075290;28;20432;-51
2022/07/26 05:27:55;;;;;;;4.57;4.17;;;21.10;99.90;;;;;;5075457;28;20447;-47
2022/07/26 05:30:22;;;;;;;5.87;3.80;;;21.10;99.90;;;;;;5074506;28;20545;-51
2022/07/26 05:32:48;;;;;;;5.53;4.70;;;21.10;99.90;;;;;;5075342;28;20451;-46
2022/07/26 05:35:15;;;;;;;4.27;3.63;;;21.00;99.90;;;;;;5038813;28;20459;-52
2022/07/26 05:37:44;;;;;;;6.50;4.40;;;21.10;99.90;;;;;;4990213;28;20481;-42
2022/07/26 05:40:13;;;;;;;7.17;4.47;;;21.10;99.90;;;;;;4991933;28;20502;-40
2022/07/26 05:42:40;;;;;;;6.27;3.70;;;21.00;99.90;;;;;;4992912;28;20465;-42
2022/07/26 05:45:08;;;;;;;7.53;5.23;;;20.90;99.90;;;;;;4992730;28;20427;-45
2022/07/26 05:47:38;;;;;;;5.67;4.30;;;20.80;99.90;;;;;;4992869;28;20446;-50
2022/07/26 05:50:06;;;;;;;5.93;5.33;;;20.60;99.90;;;;;;4992514;28;20546;-42
2022/07/26 05:52:35;;;;;;;6.50;4.10;;;20.60;99.90;;;;;;4992854;28;20497;-41
2022/07/26 05:55:03;;;;;;;5.83;4.43;;;20.60;99.90;;;;;;4992207;28;20431;-48
2022/07/26 05:57:34;;;;;;;6.87;4.23;;;20.50;99.90;;;;;;4993291;28;20484;-45
2022/07/26 06:00:01;;;;;;;6.53;3.73;;;20.60;99.90;;;;;;4992972;28;20449;-49
2022/07/26 06:02:27;;;;;;;6.50;3.90;;;20.60;99.90;;;;;;4992690;28;20454;-38
2022/07/26 06:04:57;;;;;;;4.43;3.50;;;20.60;99.90;;;;;;4992070;28;20427;-33
2022/07/26 06:07:24;;;;;;;9.80;3.97;;;20.60;99.90;;;;;;4992133;28;20489;-48
2022/07/26 06:09:50;;;;;;;5.70;3.73;;;20.60;99.90;;;;;;4994666;28;20443;-51
2022/07/26 06:12:17;;;;;;;7.50;4.27;;;20.50;99.90;;;;;;4995476;28;20489;-50
2022/07/26 06:14:45;;;;;;;7.30;4.03;;;20.40;99.90;;;;;;4995967;28;20462;-48
2022/07/26 06:17:12;;;;;;;3.87;3.00;;;20.40;99.90;;;;;;4994640;28;20451;-51
2022/07/26 06:19:39;;;;;;;6.40;3.20;;;20.50;99.90;;;;;;4988176;28;20502;-52
2022/07/26 06:22:06;;;;;;;6.47;3.33;;;20.50;99.90;;;;;;4982435;28;20491;-53
2022/07/26 06:24:33;;;;;;;5.57;2.70;;;20.60;99.90;;;;;;4982725;28;20541;-50
2022/07/26 06:27:01;;;;;;;3.80;2.80;;;20.70;99.90;;;;;;4981243;28;20473;-53
2022/07/26 06:29:30;;;;;;;8.33;3.13;;;20.80;99.90;;;;;;4984057;28;20450;-53
2022/07/26 06:31:58;;;;;;;3.33;2.90;;;20.90;99.90;;;;;;4980852;28;20536;-57
2022/07/26 06:34:25;;;;;;;4.93;2.93;;;21.00;99.90;;;;;;4993899;28;20730;-45
2022/07/26 06:36:52;;;;;;;6.70;3.20;;;21.20;99.90;;;;;;4994484;28;20535;-52
2022/07/26 06:39:19;;;;;;;4.83;2.37;;;21.30;99.90;;;;;;4995310;28;20447;-46
2022/07/26 06:41:45;;;;;;;3.80;2.63;;;21.30;99.90;;;;;;4992189;28;20494;-50
2022/07/26 06:44:12;;;;;;;4.10;3.30;;;21.40;99.90;;;;;;4994954;28;20431;-55
2022/07/26 06:46:39;;;;;;;5.20;2.60;;;21.50;99.90;;;;;;4980015;28;20447;-53
2022/07/26 06:49:07;;;;;;;7.10;3.07;;;21.60;99.90;;;;;;4976868;28;20469;-58
2022/07/26 06:51:34;;;;;;;4.00;2.70;;;21.60;99.90;;;;;;4981101;28;20597;-52
2022/07/26 06:54:02;;;;;;;2.70;2.33;;;21.70;99.90;;;;;;4984244;28;20481;-57
2022/07/26 06:56:28;;;;;;;4.10;2.70;;;21.70;99.90;;;;;;4983680;28;20462;-57
2022/07/26 06:58:55;;;;;;;5.53;2.70;;;21.60;99.90;;;;;;4984566;28;20479;-48
2022/07/26 07:01:22;;;;;;;3.07;2.17;;;21.50;99.90;;;;;;4984624;28;20426;-57
2022/07/26 07:03:49;;;;;;;4.80;2.73;;;21.70;99.90;;;;;;4984926;28;20455;-52
2022/07/26 07:06:17;;;;;;;10.80;2.77;;;21.90;99.90;;;;;;4980796;28;20495;-56
2022/07/26 07:08:44;;;;;;;5.83;3.07;;;21.90;99.90;;;;;;4981520;28;20463;-33
2022/07/26 07:11:10;;;;;;;6.30;3.50;;;22.10;99.90;;;;;;4971083;28;20467;-43
2022/07/26 07:13:37;;;;;;;3.67;2.20;;;22.30;99.90;;;;;;4978225;28;20866;-54
2022/07/26 07:16:11;;;;;;;5.10;2.80;;;22.30;99.90;;;;;;4984893;28;20521;-53
2022/07/26 07:18:38;;;;;;;3.77;2.73;;;22.30;99.90;;;;;;4990077;28;20467;-50
2022/07/26 07:21:05;;;;;;;5.10;2.97;;;22.30;99.90;;;;;;4974456;28;20451;-55
2022/07/26 07:23:33;;;;;;;7.97;2.80;;;22.50;99.90;;;;;;4988193;28;20481;-55
2022/07/26 07:26:00;;;;;;;3.63;1.97;;;22.80;99.90;;;;;;4986941;28;20458;-43
2022/07/26 07:28:27;;;;;;;6.33;2.87;;;23.10;99.90;;;;;;4980973;28;20454;-49
2022/07/26 07:30:54;;;;;;;3.93;2.20;;;23.10;99.90;;;;;;4979369;28;21220;-56
2022/07/26 07:33:21;;;;;;;6.87;2.70;;;23.50;99.90;;;;;;4978434;28;20501;-52
2022/07/26 07:35:47;;;;;;;10.17;2.40;;;24.30;99.90;;;;;;4986531;28;20454;-57
2022/07/26 07:38:14;;;;;;;4.97;2.30;;;24.60;99.90;;;;;;4983772;28;20467;-53
2022/07/26 07:40:42;;;;;;;3.40;2.07;;;25.10;99.90;;;;;;4984084;28;20481;-55
2022/07/26 07:43:09;;;;;;;3.17;2.00;;;25.50;99.90;;;;;;4978794;28;20447;-54
2022/07/26 07:45:36;;;;;;;3.00;2.23;;;25.90;99.90;;;;;;4979820;28;20439;-57
2022/07/26 07:48:03;;;;;;;3.03;2.47;;;26.30;99.90;;;;;;4979551;28;20447;-55
2022/07/26 07:50:30;;;;;;;3.23;2.90;;;26.70;99.90;;;;;;4978090;28;20463;-55
2022/07/26 07:52:57;;;;;;;4.40;2.47;;;27.00;99.90;;;;;;4981002;28;20490;-57
2022/07/26 07:55:24;;;;;;;2.93;2.60;;;27.60;99.90;;;;;;4981201;28;20463;-57
2022/07/26 07:57:52;;;;;;;2.93;1.80;;;28.60;99.90;;;;;;4979335;28;20455;-53
2022/07/26 08:00:19;;;;;;;3.43;2.07;;;29.60;99.90;;;;;;5017021;22;20596;-57
2022/07/26 08:02:46;;;;;;;2.90;2.00;;;30.00;96.30;;;;;;5039400;28;20504;-54
2022/07/26 08:05:14;;;;;;;4.77;2.10;;;30.50;94.60;;;;;;5052491;28;20479;-53
2022/07/26 08:07:41;;;;;;;2.27;2.03;;;30.80;91.30;;;;;;5045796;28;21051;-57
2022/07/26 08:10:08;;;;;;;3.30;2.13;;;30.50;90.30;;;;;;5049353;28;20452;-53
2022/07/26 08:12:35;;;;;;;7.57;2.60;;;30.80;89.80;;;;;;5041319;28;20488;-55
2022/07/26 08:15:04;;;;;;;5.80;2.07;;;30.80;87.70;;;;;;5036254;28;20477;-58
2022/07/26 08:17:31;;;;;;;5.50;2.83;;;31.10;85.80;;;;;;5039037;28;20474;-59
2022/07/26 08:19:58;;;;;;;3.80;2.30;;;31.40;83.50;;;;;;5035779;28;20770;-59
2022/07/26 08:22:25;;;;;;;4.27;2.37;;;31.10;83.60;;;;;;5034150;28;20488;-56
2022/07/26 08:24:52;;;;;;;2.70;1.93;;;30.70;84.90;;;;;;5037442;28;20531;-57
2022/07/26 08:27:22;;;;;;;2.73;2.23;;;30.30;85.60;;;;;;5040078;28;20451;-53
2022/07/26 08:29:49;;;;;;;2.90;2.00;;;29.60;88.70;;;;;;5041555;28;20468;-54
2022/07/26 08:32:17;;;;;;;3.23;1.67;;;28.70;89.70;;;;;;5043361;28;20480;-52
2022/07/26 08:34:44;;;;;;;3.93;2.03;;;28.00;91.10;;;;;;5049483;28;20483;-55
2022/07/26 08:37:11;;;;;;;2.80;1.80;;;27.20;92.70;;;;;;5048554;28;20524;-51
2022/07/26 08:39:40;;;;;;;3.03;1.90;;;26.40;95.80;;;;;;5038109;28;20450;-48
2022/07/26 08:42:14;;;;;;;3.70;1.97;;;25.90;99.30;;;;;;5052046;28;20540;-52
2022/07/26 08:44:43;;;;;;;7.30;2.00;;;25.50;99.90;;;;;;5050614;28;20413;-52
2022/07/26 08:47:11;;;;;;;3.97;2.10;;;25.00;99.90;;;;;;5044686;28;20456;-54
2022/07/26 08:49:39;;;;;;;4.43;1.87;;;24.50;99.90;;;;;;5041237;28;20450;-58
2022/07/26 08:52:07;;;;;;;4.57;2.63;;;24.30;99.90;;;;;;5049960;28;20522;-53
2022/07/26 08:54:34;;;;;;;3.03;1.63;;;24.90;99.90;;;;;;5051488;28;20472;-49
2022/07/26 08:57:00;;;;;;;4.67;1.97;;;25.30;99.90;;;;;;5039294;28;20448;-54
2022/07/26 08:59:29;;;;;;;3.60;2.43;;;25.40;99.90;;;;;;5039223;28;20444;-54
2022/07/26 09:01:58;;;;;;;4.40;2.00;;;25.50;99.90;;;;;;5036687;28;20884;-56
2022/07/26 09:04:27;;;;;;;2.00;1.80;;;25.80;99.90;;;;;;5035073;28;21019;-46
2022/07/26 09:06:58;;;;;;;2.23;1.80;;;25.60;99.90;;;;;;5036901;28;20464;-55
2022/07/26 09:09:26;;;;;;;7.30;2.50;;;25.30;99.90;;;;;;5034684;28;20431;-57
2022/07/26 09:11:54;;;;;;;3.57;2.10;;;25.00;99.90;;;;;;5038739;28;20479;-51
2022/07/26 09:14:21;;;;;;;3.13;1.93;;;24.70;99.90;;;;;;5036062;28;20462;-52
2022/07/26 09:16:58;;;;;;;3.07;1.50;;;25.30;99.90;;;;;;5041886;28;20527;-54
2022/07/26 09:19:25;;;;;;;3.70;2.77;;;26.00;99.90;;;;;;5039075;28;20966;-49
2022/07/26 09:21:54;;;;;;;5.83;2.00;;;26.50;99.90;;;;;;5036757;28;20871;-49
2022/07/26 09:24:33;;;;;;;3.30;2.00;;;26.80;99.90;;;;;;5038404;28;20519;-51
2022/07/26 09:27:02;;;;;;;2.47;1.50;;;26.50;99.90;;;;;;5052279;28;20427;-56
2022/07/26 09:29:30;;;;;;;2.40;1.50;;;26.10;99.90;;;;;;5051988;28;20468;-52
2022/07/26 09:32:10;;;;;;;4.43;1.50;;;25.60;99.90;;;;;;5047880;28;20487;-52
2022/07/26 09:34:37;;;;;;;2.80;1.60;;;25.20;99.90;;;;;;5055815;28;20434;-54
2022/07/26 09:37:04;;;;;;;3.23;2.20;;;24.80;99.90;;;;;;5056629;28;20471;-54
2022/07/26 09:39:32;;;;;;;2.80;1.73;;;24.40;99.90;;;;;;5056317;28;20443;-57
2022/07/26 09:42:07;;;;;;;2.63;1.70;;;24.10;99.90;;;;;;5047841;28;20442;-58
2022/07/26 09:44:42;;;;;;;3.63;1.77;;;23.90;99.90;;;;;;5051615;28;20476;-50
2022/07/26 09:47:12;;;;;;;4.30;1.87;;;23.70;99.90;;;;;;5052184;28;20508;-55
2022/07/26 09:49:39;;;;;;;3.97;1.70;;;23.70;99.90;;;;;;5061262;28;20460;-47
2022/07/26 09:52:15;;;;;;;2.90;2.07;;;23.60;99.90;;;;;;5051883;28;20538;-54
2022/07/26 09:54:45;;;;;;;1.87;1.57;;;23.70;99.90;;;;;;5050042;28;20492;-50
2022/07/26 09:57:14;;;;;;;7.30;2.13;;;23.90;99.90;;;;;;5057977;28;20467;-51
2022/07/26 09:59:41;;;;;;;3.67;2.00;;;25.00;99.90;;;;;;5058229;28;20483;-55
2022/07/26 10:02:09;;;;;;;2.90;1.70;;;26.30;99.90;;;;;;5070985;28;20447;-58
2022/07/26 10:04:36;;;;;;;2.10;1.90;;;27.40;99.90;;;;;;5064606;28;20432;-57
2022/07/26 10:07:06;;;;;;;8.07;1.70;;;28.70;99.70;;;;;;5062727;28;20535;-57
2022/07/26 10:09:40;;;;;;;2.93;1.93;;;29.60;93.70;;;;;;5062332;28;20471;-61
2022/07/26 10:12:14;;;;;;;4.20;1.90;;;29.70;90.40;;;;;;5057810;28;20482;-55
2022/07/26 10:14:44;;;;;;;6.70;1.77;;;29.30;89.90;;;;;;5058640;28;20501;-57
2022/07/26 10:17:44;;;;;;;3.20;1.80;;;28.50;91.40;;;;;;5061086;28;20496;-57
2022/07/26 10:20:44;;;;;;;2.80;1.53;;;27.80;92.60;;;;;;5058038;28;20953;-54
2022/07/26 10:23:37;;;;;;;2.37;1.90;;;27.20;94.10;;;;;;5060746;28;20430;-53
2022/07/26 10:26:05;;;;;;;1.93;1.80;;;26.50;95.90;;;;;;5058870;28;20475;-53
2022/07/26 10:28:36;;;;;;;2.13;1.60;;;26.10;97.70;;;;;;5061852;28;20439;-52
2022/07/26 10:31:33;;;;;;;2.83;2.40;;;25.70;99.60;;;;;;5070541;28;20428;-56
2022/07/26 10:34:01;;;;;;;4.87;1.70;;;25.60;99.90;;;;;;5007436;28;21034;-55
2022/07/26 10:36:32;;;;;;;2.30;1.40;;;25.60;99.90;;;;;;5054465;28;20454;-58
2022/07/26 10:39:10;;;;;;;7.43;4.70;;;25.80;99.90;;;;;;5064184;28;20477;-53
2022/07/26 10:41:43;;;;;;;3.70;1.73;;;25.70;99.90;;;;;;5067192;28;20495;-55
2022/07/26 10:44:21;;;;;;;2.80;2.07;;;25.60;99.90;;;;;;5062997;28;20476;-56
2022/07/26 10:47:03;;;;;;;3.00;1.63;;;25.40;99.90;;;;;;5064845;28;20507;-46
2022/07/26 10:49:33;;;;;;;5.40;2.37;;;25.10;99.90;;;;;;5061031;28;20412;-55
2022/07/26 10:52:15;;;;;;;3.07;1.70;;;24.90;99.90;;;;;;5060566;28;20471;-55
2022/07/26 10:55:10;;;;;;;7.03;2.10;;;24.70;99.90;;;;;;5060242;28;20439;-58
2022/07/26 10:57:39;;;;;;;4.03;1.83;;;24.60;99.90;;;;;;5060067;28;20787;-58
2022/07/26 11:00:14;;;;;;;4.73;1.80;;;24.60;99.90;;;;;;5062168;28;20551;-60
2022/07/26 11:02:42;;;;;;;2.83;1.60;;;25.10;99.90;;;;;;5066108;28;20756;-56
2022/07/26 11:05:18;;;;;;;5.50;1.90;;;25.60;99.90;;;;;;5066080;28;20435;-57
2022/07/26 11:07:58;;;;;;;3.10;1.57;;;25.90;99.90;;;;;;5065932;28;20460;-55
2022/07/26 11:10:28;;;;;;;3.63;2.07;;;25.90;99.90;;;;;;5056630;28;20478;-53
2022/07/26 11:13:16;;;;;;;1.83;1.47;;;25.80;99.90;;;;;;5058485;28;20924;-54
2022/07/26 11:15:47;;;;;;;4.00;2.10;;;25.60;99.90;;;;;;5057223;28;20510;-57
2022/07/26 11:18:21;;;;;;;3.27;2.17;;;25.30;99.90;;;;;;5059428;28;20507;-57
2022/07/26 11:20:51;;;;;;;6.00;2.33;;;25.10;99.90;;;;;;5057789;28;20428;-53
2022/07/26 11:23:30;;;;;;;2.93;2.20;;;25.10;99.90;;;;;;5058755;28;20481;-57
2022/07/26 11:26:17;;;;;;;5.50;1.77;;;25.60;99.90;;;;;;5063468;28;20713;-51
2022/07/26 11:28:55;;;;;;;3.90;1.70;;;25.90;99.90;;;;;;5058384;28;20471;-53
2022/07/26 11:31:27;;;;;;;2.30;1.87;;;26.10;99.90;;;;;;5059966;28;20488;-55
2022/07/26 11:33:56;;;;;;;3.23;1.63;;;26.30;99.90;;;;;;5058271;28;20478;-58
2022/07/26 11:36:37;;;;;;;4.57;1.90;;;26.50;99.90;;;;;;5059918;28;20903;-53
2022/07/26 11:39:06;;;;;;;4.00;2.00;;;26.90;99.90;;;;;;5061148;28;20447;-55
2022/07/26 11:41:33;;;;;;;3.60;1.97;;;27.00;99.90;;;;;;5060157;28;20504;-49
2022/07/26 11:44:00;;;;;;;8.37;2.40;;;27.00;99.90;;;;;;5056019;28;21016;-57
2022/07/26 11:46:37;;;;;;;5.07;2.17;;;26.90;99.90;;;;;;5060641;28;20452;-58
2022/07/26 11:49:12;;;;;;;4.17;2.20;;;26.70;99.90;;;;;;5063529;28;20428;-49
2022/07/26 11:51:39;;;;;;;4.63;2.00;;;26.50;99.90;;;;;;5058911;28;20458;-54
2022/07/26 11:54:06;;;;;;;7.47;2.37;;;26.20;99.90;;;;;;5061870;28;20495;-54
2022/07/26 11:56:33;;;;;;;2.90;2.17;;;25.70;99.90;;;;;;5057583;28;20534;-53
2022/07/26 11:59:01;;;;;;;7.67;2.27;;;25.40;99.90;;;;;;5060543;28;20499;-56
2022/07/26 12:01:28;;;;;;;6.97;2.50;;;25.10;99.90;;;;;;5059512;28;20501;-56
2022/07/26 12:03:57;;;;;;;5.00;2.80;;;24.70;99.90;;;;;;5063357;28;20508;-57
2022/07/26 12:06:25;;;;;;;4.90;2.90;;;24.30;99.90;;;;;;5054483;27;20468;-54
2022/07/26 12:08:55;;;;;;;4.40;2.40;;;24.00;99.90;;;;;;5042422;28;20531;-52
2022/07/26 12:11:24;;;;;;;2.87;2.50;;;23.80;99.90;;;;;;5041541;28;20536;-57
2022/07/26 12:13:57;;;;;;;4.40;3.17;;;23.60;99.90;;;;;;5041256;28;20544;-56
2022/07/26 12:16:45;;;;;;;4.57;3.13;;;23.30;99.90;;;;;;5046174;28;20437;-46
2022/07/26 12:19:31;;;;;;;9.00;4.03;;;23.30;99.90;;;;;;5048060;28;20440;-50
2022/07/26 12:22:07;;;;;;;2.30;2.10;;;23.30;99.90;;;;;;5052195;28;20500;-51
2022/07/26 12:24:36;;;;;;;4.73;2.57;;;23.20;99.90;;;;;;5052059;28;20447;-51
2022/07/26 12:27:13;;;;;;;3.00;2.70;;;23.00;99.90;;;;;;5051746;28;20436;-49
2022/07/26 12:29:43;;;;;;;4.93;2.63;;;22.30;99.90;;;;;;5035362;28;20495;-58
2022/07/26 12:32:12;;;;;;;3.90;3.50;;;21.90;99.90;;;;;;5042829;28;20450;-46
2022/07/26 12:34:53;;;;;;;4.23;3.33;;;21.40;99.90;;;;;;5051591;28;20463;-46
2022/07/26 12:37:21;;;;;;;4.60;3.10;;;21.00;99.90;;;;;;5051194;28;20468;-46
2022/07/26 12:40:05;;;;;;;4.03;3.60;;;20.90;99.90;;;;;;5052343;28;20436;-41
2022/07/26 12:42:34;;;;;;;3.90;3.00;;;20.70;99.90;;;;;;5051671;28;20502;-47
2022/07/26 12:45:01;;;;;;;3.20;2.90;;;20.60;99.90;;;;;;5051834;28;20448;-49
2022/07/26 12:47:28;;;;;;;4.63;3.07;;;20.50;99.90;;;;;;5038501;28;20461;-45
2022/07/26 12:49:56;;;;;;;7.57;3.03;;;20.40;99.90;;;;;;5050243;28;20448;-55
2022/07/26 12:52:24;;;;;;;5.13;2.87;;;20.00;99.90;;;;;;5051586;28;20440;-45
2022/07/26 12:54:53;;;;;;;5.20;3.07;;;19.80;99.90;;;;;;5052205;28;20511;-42
2022/07/26 12:57:20;;;;;;;2.80;2.30;;;19.80;99.90;;;;;;5052203;28;20452;-47